• Join FlightAware (Why Join?)
  • Login
  • US Flag 
Rudolph Flight #1: Arrived! 
06:46AM EST


 

Airport Tracker/Info


-or-


 

Live Flight TrackerFlight Track Log ✈ AAL1870 ✈ 17-Jun-2013 ✈ KLAX - KORD

Flight Track Log - Related Links

Times and Time Zones

All times are in EDT time to prevent confusion due to time zone crossing. See the AAL1870 flight status page for this flight to view local times or setup timezone preferences in your user account.

Time Position Orientation Groundspeed Altitude Reporting Facility
EDT Latitude Longitude Course Direction KTS MPH feet Rate Location/Type
08:40PM 33.9350 -118.4240 263° West 167 192 900  Level FlightAware
08:40PM 33.9300 -118.4660 262° West 210 242 2,000 2,100 Climbing FlightAware
08:41PM 33.9170 -118.5040 248° West 244 281 3,000 1,980 Climbing FlightAware
08:41PM 33.9060 -118.5370 248° West 265 305 4,000 2,760 Climbing FlightAware
08:42PM 33.8850 -118.5830 241° Southwest 277 319 5,700 3,180 Climbing FlightAware
08:42PM 33.8660 -118.5950 208° Southwest 286 329 6,400 2,700 Climbing FlightAware
08:42PM 33.8550 -118.5970 189° South 290 334 6,800 2,520 Climbing FlightAware
08:43PM 33.8310 -118.5890 165° South 296 341 7,600 2,580 Climbing FlightAware
08:43PM 33.8180 -118.5750 138° Southeast 296 341 8,200 2,760 Climbing FlightAware
08:43PM 33.8100 -118.5560 117° Southeast 299 344 8,800 2,700 Climbing FlightAware
08:43PM 33.8080 -118.5380 98° East 299 344 9,300 2,400 Climbing FlightAware
08:44PM 33.8260 -118.4960 63° Northeast 304 350 10,500 1,980 Climbing FlightAware
08:44PM 33.8450 -118.4830 30° Northeast 319 367 10,800 1,680 Climbing FlightAware
08:45PM 33.9010 -118.4510 25° Northeast 348 400 12,000 2,280 Climbing FlightAware
08:45PM 33.9560 -118.3930 41° Northeast 355 409 14,100 2,580 Climbing FlightAware
08:46PM 33.9930 -118.3270 56° Northeast 362 417 15,700 2,160 Climbing FlightAware
08:47PM 34.0360 -118.2510 56° Northeast 376 433 17,200 1,440 Climbing FlightAware
08:47PM 34.0760 -118.1810 55° Northeast 406 467 17,800 1,500 Climbing FlightAware
08:48PM 34.1390 -118.0690 56° Northeast 420 483 19,700 1,860 Climbing FlightAware
08:49PM 34.1860 -117.9850 56° Northeast 434 499 20,900 1,380 Climbing FlightAware
08:50PM 34.2100 -117.9430 55° Northeast 440 506 21,500 1,200 Climbing FlightAware
08:50PM 34.2820 -117.8130 56° Northeast 472 543 22,600 1,260 Climbing FlightAware
08:51PM 34.3370 -117.7160 56° Northeast 490 564 23,400 900 Climbing FlightAware
08:52PM 34.3860 -117.6280 56° Northeast 506 582 23,900 1,140 Climbing FlightAware
08:53PM 34.4460 -117.5200 56° Northeast 514 592 25,000 1,440 Climbing FlightAware
08:53PM 34.5020 -117.4200 56° Northeast 516 594 26,000 1,260 Climbing FlightAware
08:54PM 34.5450 -117.3410 57° Northeast 520 598 26,700 1,380 Climbing FlightAware
08:55PM 34.6190 -117.2080 56° Northeast 524 603 28,000 1,380 Climbing FlightAware
08:55PM 34.6710 -117.1130 56° Northeast 529 609 28,800 1,320 Climbing FlightAware
08:56PM 34.7310 -117.0030 56° Northeast 528 608 29,900 1,440 Climbing FlightAware
08:57PM 34.7810 -116.9130 56° Northeast 526 605 30,800 1,320 Climbing FlightAware
08:58PM 34.8530 -116.7800 57° Northeast 527 606 31,900 1,200 Climbing FlightAware
08:58PM 34.9150 -116.6670 56° Northeast 526 605 32,800 1,320 Climbing FlightAware
08:59PM 34.9770 -116.5620 54° Northeast 515 593 33,900 1,320 Climbing FlightAware
09:00PM 35.0500 -116.4700 46° Northeast 509 586 34,800 1,140 Climbing FlightAware
09:00PM 35.1150 -116.3880 46° Northeast 509 586 35,500 900 Climbing FlightAware
09:01PM 35.1860 -116.2990 46° Northeast 510 587 36,100 720 Climbing FlightAware
09:02PM 35.2470 -116.2230 45° Northeast 512 589 36,500 540 Climbing FlightAware
09:03PM 35.3270 -116.1230 46° Northeast 514 592 36,900 300 Climbing FlightAware
09:03PM 35.3920 -116.0400 46° Northeast 514 592 37,000 60 Climbing FlightAware
09:04PM 35.4650 -115.9470 46° Northeast 516 594 37,000  Level FlightAware
09:05PM 35.5180 -115.8800 46° Northeast 519 597 37,000  Level FlightAware
09:05PM 35.6060 -115.7690 46° Northeast 521 600 37,000  Level FlightAware
09:06PM 35.6670 -115.6910 46° Northeast 520 598 37,000  Level FlightAware
09:07PM 35.7420 -115.5950 46° Northeast 517 595 37,000  Level FlightAware
09:07PM 35.8110 -115.5070 46° Northeast 514 592 37,000  Level FlightAware
09:08PM 35.8830 -115.4150 46° Northeast 513 590 37,000  Level FlightAware
09:09PM 35.9490 -115.3290 47° Northeast 514 592 37,000  Level FlightAware
09:10PM 36.0150 -115.2430 46° Northeast 514 592 37,000  Level FlightAware
09:10PM 36.0830 -115.1360 52° Northeast 529 609 37,000  Level FlightAware
09:11PM 36.1120 -115.0530 67° East 535 616 37,000  Level FlightAware
09:12PM 36.1580 -114.9040 69° East 525 604 37,000  Level FlightAware
09:12PM 36.1950 -114.7830 69° East 525 604 37,000  Level FlightAware
09:13PM 36.2310 -114.6640 69° East 526 605 37,000  Level FlightAware
09:14PM 36.2650 -114.5540 69° East 525 604 37,000  Level FlightAware
09:15PM 36.3020 -114.4310 69° East 524 603 37,000  Level FlightAware
09:15PM 36.3360 -114.3160 70° East 525 604 37,000  Level FlightAware
09:16PM 36.3700 -114.2030 69° East 524 603 37,000  Level FlightAware
09:17PM 36.4050 -114.0820 70° East 524 603 37,000  Level FlightAware
09:17PM 36.4440 -113.9530 69° East 524 603 37,000  Level FlightAware
09:18PM 36.4770 -113.8410 70° East 523 602 37,000  Level FlightAware
09:19PM 36.5130 -113.7180 70° East 523 602 37,000  Level FlightAware
09:19PM 36.5480 -113.5970 70° East 522 601 37,000  Level FlightAware
09:20PM 36.5800 -113.4870 70° East 522 601 37,000  Level FlightAware
09:21PM 36.6090 -113.3850 70° East 521 600 37,000  Level FlightAware
09:22PM 36.6510 -113.2420 70° East 520 598 37,000  Level FlightAware
09:22PM 36.6810 -113.1390 70° East 520 598 37,000  Level FlightAware
09:23PM 36.7170 -113.0130 70° East 519 597 37,000  Level FlightAware
09:24PM 36.7520 -112.8880 71° East 519 597 37,000  Level FlightAware
09:24PM 36.7820 -112.7830 70° East 518 596 37,000  Level FlightAware
09:25PM 36.8160 -112.6610 71° East 519 597 37,000  Level FlightAware
09:26PM 36.8510 -112.5370 71° East 518 596 37,000  Level FlightAware
09:26PM 36.8840 -112.4190 71° East 517 595 37,000  Level FlightAware
09:27PM 36.9170 -112.3000 71° East 517 595 37,000  Level FlightAware
09:28PM 36.9480 -112.1860 71° East 517 595 37,000  Level FlightAware
09:29PM 36.9840 -112.0600 70° East 517 595 37,000  Level FlightAware
09:29PM 37.0150 -111.9460 71° East 517 595 37,000  Level FlightAware
09:30PM 37.0450 -111.8270 72° East 518 596 37,000  Level FlightAware
09:31PM 37.0730 -111.7180 72° East 517 595 37,000  Level FlightAware
09:31PM 37.1050 -111.5920 72° East 518 596 37,000  Level FlightAware
09:32PM 37.1350 -111.4730 72° East 517 595 37,000  Level FlightAware
09:33PM 37.1670 -111.3480 72° East 516 594 37,000  Level FlightAware
09:33PM 37.1990 -111.2230 72° East 515 593 37,000  Level FlightAware
09:35PM 37.2440 -111.0430 73° East 515 593 37,000  Level FlightAware
09:35PM 37.2660 -110.9580 72° East 515 593 37,000  Level FlightAware
09:36PM 37.2960 -110.8420 72° East 515 593 37,000  Level FlightAware
09:37PM 37.3190 -110.7550 72° East 515 593 37,000  Level FlightAware
09:37PM 37.3490 -110.6390 72° East 515 593 37,000  Level FlightAware
09:38PM 37.3710 -110.5510 73° East 515 593 37,000  Level FlightAware
09:39PM 37.4240 -110.3160 74° East 508 585 37,000  Level FlightAware
09:39PM 37.4430 -110.2380 73° East 507 583 37,000  Level FlightAware
09:40PM 37.4800 -110.0850 73° East 505 581 37,000  Level FlightAware
09:41PM 37.5090 -109.9620 73° East 506 582 37,000  Level FlightAware
09:42PM 37.5390 -109.8460 72° East 506 582 37,000  Level FlightAware
09:42PM 37.5710 -109.7260 71° East 505 581 37,000  Level FlightAware
09:43PM 37.6000 -109.6150 72° East 505 581 37,000  Level FlightAware
09:44PM 37.6310 -109.4910 72° East 505 581 37,000  Level FlightAware
09:44PM 37.6590 -109.3810 72° East 506 582 37,000  Level FlightAware
09:45PM 37.6900 -109.2570 72° East 505 581 37,000  Level FlightAware
09:46PM 37.7210 -109.1370 72° East 504 580 37,000  Level FlightAware
09:46PM 37.7500 -109.0190 73° East 506 582 37,000  Level FlightAware
09:47PM 37.7810 -108.8970 72° East 503 579 37,000  Level FlightAware
09:48PM 37.8100 -108.7800 73° East 503 579 37,000  Level FlightAware
09:49PM 37.8380 -108.6670 73° East 503 579 37,000  Level FlightAware
09:49PM 37.8670 -108.5490 73° East 504 580 37,000  Level FlightAware
09:50PM 37.8960 -108.4310 73° East 505 581 37,000  Level FlightAware
09:51PM 37.9260 -108.3070 73° East 505 581 37,000  Level FlightAware
09:51PM 37.9540 -108.1900 73° East 504 580 37,000  Level FlightAware
09:52PM 37.9820 -108.0750 73° East 504 580 37,000  Level FlightAware
09:53PM 38.0100 -107.9570 73° East 504 580 37,000  Level FlightAware
09:54PM 38.0430 -107.8330 71° East 505 581 37,000  Level FlightAware
09:54PM 38.0720 -107.7230 71° East 505 581 37,000  Level FlightAware
09:55PM 38.1020 -107.6040 72° East 504 580 37,000  Level FlightAware
09:56PM 38.1330 -107.4840 72° East 503 579 37,000  Level FlightAware
09:56PM 38.1610 -107.3750 72° East 502 578 37,000  Level FlightAware
09:57PM 38.1930 -107.2460 72° East 500 575 37,000  Level FlightAware
09:58PM 38.2230 -107.1290 72° East 499 574 37,000  Level FlightAware
09:58PM 38.2520 -107.0120 72° East 500 575 37,000  Level FlightAware
09:59PM 38.2652 -106.9600 72° East 501 577 37,000  Level FlightAware ADS-B
09:59PM 38.2866 -106.8740 72° East 502 578 37,000  Level FlightAware ADS-B
10:00PM 38.3076 -106.7890 72° East 502 578 37,000  Level FlightAware ADS-B
10:00PM 38.3286 -106.7040 72° East 501 577 37,000  Level FlightAware ADS-B
10:01PM 38.3494 -106.6200 72° East 501 577 37,000  Level FlightAware ADS-B
10:01PM 38.3702 -106.5350 73° East 501 577 37,000  Level FlightAware ADS-B
10:02PM 38.3943 -106.4360 73° East 499 574 37,000  Level FlightAware ADS-B
10:02PM 38.4171 -106.3430 73° East 499 574 37,000  Level FlightAware ADS-B
10:03PM 38.4381 -106.2570 73° East 498 573 37,000  Level FlightAware ADS-B
10:03PM 38.4628 -106.1550 73° East 497 572 37,000  Level FlightAware ADS-B
10:04PM 38.4881 -106.0500 73° East 496 571 37,000  Level FlightAware ADS-B
10:04PM 38.4995 -105.9980 74° East 497 572 37,000  Level FlightAware ADS-B
10:05PM 38.5063 -105.9550 79° East 496 571 37,000  Level FlightAware ADS-B
10:05PM 38.5186 -105.8680 80° East 495 570 37,000  Level FlightAware ADS-B
10:06PM 38.5309 -105.7810 80° East 496 571 37,000  Level FlightAware ADS-B
10:06PM 38.5434 -105.6930 80° East 494 568 37,000  Level FlightAware ADS-B
10:07PM 38.5555 -105.6070 80° East 493 567 37,000  Level FlightAware ADS-B
10:07PM 38.5682 -105.5170 80° East 492 566 37,000  Level FlightAware ADS-B
10:08PM 38.5801 -105.4300 80° East 491 565 37,000  Level FlightAware ADS-B
10:08PM 38.5921 -105.3430 80° East 495 570 37,000  Level FlightAware ADS-B
10:09PM 38.6040 -105.2550 80° East 495 570 37,000  Level FlightAware ADS-B
10:09PM 38.6157 -105.1690 80° East 494 568 37,000  Level FlightAware ADS-B
10:10PM 38.6273 -105.0830 80° East 494 568 37,000  Level FlightAware ADS-B
10:10PM 38.6389 -104.9960 80° East 493 567 37,000  Level FlightAware ADS-B
10:11PM 38.6505 -104.9090 80° East 494 568 37,000  Level FlightAware ADS-B
10:11PM 38.6620 -104.8220 80° East 495 570 37,000  Level FlightAware ADS-B
10:12PM 38.6747 -104.7250 80° East 495 570 37,000  Level FlightAware ADS-B
10:12PM 38.6862 -104.6380 80° East 495 570 37,000  Level FlightAware ADS-B
10:13PM 38.6976 -104.5520 80° East 496 571 37,000  Level FlightAware ADS-B
10:13PM 38.7090 -104.4630 81° East 495 570 37,000  Level FlightAware ADS-B
10:14PM 38.7211 -104.3700 81° East 495 570 37,000  Level FlightAware ADS-B
10:14PM 38.7323 -104.2830 81° East 496 571 37,000  Level FlightAware ADS-B
10:15PM 38.7433 -104.1960 81° East 496 571 37,000  Level FlightAware ADS-B
10:15PM 38.7543 -104.1120 80° East 496 571 37,000  Level FlightAware ADS-B
10:15PM 38.7585 -104.0870 78° East 497 572 37,000  Level FlightAware ADS-B
10:16PM 38.7782 -104.0010 74° East 498 573 37,000  Level FlightAware ADS-B
10:16PM 38.7916 -103.9460 73° East 498 573 37,000  Level FlightAware ADS-B
10:16PM 38.7961 -103.9310 69° East 499 574 37,000  Level FlightAware ADS-B
10:17PM 38.8042 -103.9090 65° Northeast 501 577 37,000  Level FlightAware ADS-B
10:17PM 38.8400 -103.8320 59° Northeast 502 578 37,000  Level FlightAware ADS-B
10:18PM 38.8766 -103.7560 58° Northeast 500 575 37,000  Level FlightAware ADS-B
10:18PM 38.9161 -103.6740 58° Northeast 500 575 37,000  Level FlightAware ADS-B
10:19PM 38.9553 -103.5960 57° Northeast 499 574 37,000  Level FlightAware ADS-B
10:19PM 38.9936 -103.5180 58° Northeast 498 573 37,000  Level FlightAware ADS-B
10:20PM 39.0310 -103.4420 58° Northeast 499 574 37,000  Level FlightAware ADS-B
10:20PM 39.0689 -103.3660 57° Northeast 499 574 37,000  Level FlightAware ADS-B
10:21PM 39.1065 -103.2900 57° Northeast 500 575 37,000  Level FlightAware ADS-B
10:21PM 39.1438 -103.2150 57° Northeast 502 578 37,000  Level FlightAware ADS-B
10:22PM 39.1811 -103.1380 58° Northeast 505 581 37,000  Level FlightAware ADS-B
10:22PM 39.2035 -103.0920 58° Northeast 508 585 37,000  Level FlightAware ADS-B
10:22PM 39.2357 -103.0100 63° Northeast 509 586 37,000  Level FlightAware ADS-B
10:23PM 39.2682 -102.9260 63° Northeast 511 588 37,000  Level FlightAware ADS-B
10:23PM 39.2798 -102.8930 66° East 511 588 37,000  Level FlightAware ADS-B
10:24PM 39.3061 -102.7980 70° East 512 589 37,000  Level FlightAware ADS-B
10:24PM 39.3295 -102.7110 71° East 512 589 37,000  Level FlightAware ADS-B
10:25PM 39.3460 -102.6470 72° East 513 590 37,000  Level FlightAware ADS-B
10:25PM 39.3642 -102.5560 75° East 512 589 37,000  Level FlightAware ADS-B
10:26PM 39.3815 -102.4670 76° East 514 592 37,000  Level FlightAware ADS-B
10:26PM 39.3994 -102.3750 76° East 518 596 37,000  Level FlightAware ADS-B
10:27PM 39.4172 -102.2840 76° East 519 597 37,000  Level FlightAware ADS-B
10:27PM 39.4350 -102.1930 76° East 519 597 37,000  Level FlightAware ADS-B
10:28PM 39.4527 -102.1020 76° East 520 598 37,000  Level FlightAware ADS-B
10:28PM 39.4710 -102.0090 76° East 522 601 37,000  Level FlightAware ADS-B
10:29PM 39.4888 -101.9170 76° East 525 604 37,000  Level FlightAware ADS-B
10:29PM 39.5065 -101.8260 76° East 524 603 37,000  Level FlightAware ADS-B
10:30PM 39.5245 -101.7320 76° East 526 605 37,000  Level FlightAware ADS-B
10:30PM 39.5421 -101.6390 76° East 526 605 37,000  Level FlightAware ADS-B
10:31PM 39.5605 -101.5420 76° East 527 606 37,000  Level FlightAware ADS-B
10:31PM 39.5794 -101.4500 75° East 529 609 37,000  Level FlightAware ADS-B
10:32PM 39.5997 -101.3560 74° East 531 611 37,000  Level FlightAware ADS-B
10:32PM 39.6201 -101.2610 74° East 531 611 37,000  Level FlightAware ADS-B
10:33PM 39.6395 -101.1700 74° East 527 606 37,000  Level FlightAware ADS-B
10:33PM 39.6587 -101.0780 75° East 516 594 37,000  Level FlightAware ADS-B
10:34PM 39.6804 -100.9750 75° East 514 592 37,000  Level FlightAware ADS-B
10:35PM 39.7083 -100.8367 75° East 515 593 37,000  Level Denver Center
10:36PM 39.7431 -100.6678 75° East 510 587 37,000  Level Denver Center
10:37PM 39.7828 -100.4717 75° East 505 581 37,000  Level Denver Center
10:38PM 39.8169 -100.3033 75° East 504 580 37,000  Level Denver Center
10:39PM 39.8458 -100.1558 76° East 506 582 37,000  Level Denver Center
10:40PM 39.8872 -99.9483 75° East 496 571 37,000  Level Denver Center
10:41PM 39.9283 -99.7408 75° East 493 567 37,000  Level Denver Center
10:42PM 39.9622 -99.5672 76° East 495 570 37,000  Level Denver Center
10:48PM 40.1630 -98.5030 76° East 503 579 37,000  Level FlightAware
10:49PM 40.1860 -98.3790 76° East 504 580 37,000  Level FlightAware
10:49PM 40.2090 -98.2540 76° East 507 583 37,000  Level FlightAware
10:50PM 40.2290 -98.1450 76° East 508 585 37,000  Level FlightAware
10:51PM 40.2610 -97.9610 77° East 506 582 37,000  Level FlightAware
10:52PM 40.2820 -97.8410 77° East 507 583 37,000  Level FlightAware
10:52PM 40.3020 -97.7270 77° East 507 583 37,000  Level FlightAware
10:53PM 40.3280 -97.5810 77° East 508 585 37,000  Level FlightAware
10:54PM 40.3490 -97.4640 77° East 507 583 37,000  Level FlightAware
10:54PM 40.3700 -97.3390 78° East 509 586 37,000  Level FlightAware
10:55PM 40.3880 -97.2120 79° East 517 595 37,000  Level FlightAware
10:56PM 40.3860 -97.0740 91° East 520 598 37,000  Level FlightAware
10:56PM 40.3820 -96.9530 92° East 522 601 37,000  Level FlightAware
10:57PM 40.3760 -96.8060 93° East 523 602 37,000  Level FlightAware
10:58PM 40.3710 -96.6780 93° East 523 602 37,000  Level FlightAware
10:59PM 40.3650 -96.5390 93° East 523 602 37,000  Level FlightAware
10:59PM 40.3600 -96.4060 93° East 523 602 37,000  Level FlightAware
11:00PM 40.3540 -96.2830 94° East 522 601 37,000  Level FlightAware
11:01PM 40.3490 -96.1500 93° East 519 597 37,000  Level FlightAware
11:01PM 40.3420 -96.0100 94° East 517 595 37,000  Level FlightAware
11:02PM 40.3370 -95.8840 93° East 516 594 37,000  Level FlightAware
11:03PM 40.3310 -95.7670 94° East 515 593 37,000  Level FlightAware
11:03PM 40.3240 -95.6220 94° East 514 592 37,000  Level FlightAware
11:04PM 40.3170 -95.4880 94° East 512 589 37,000  Level FlightAware
11:05PM 40.3100 -95.3590 94° East 497 572 37,000  Level FlightAware
11:06PM 40.3040 -95.2350 94° East 494 568 37,000  Level FlightAware
11:06PM 40.2980 -95.1150 94° East 491 565 37,000  Level FlightAware
11:07PM 40.2910 -94.9870 94° East 491 565 37,000  Level FlightAware
11:08PM 40.2820 -94.8200 94° East 493 567 37,000  Level FlightAware
11:09PM 40.2750 -94.7000 94° East 493 567 37,000  Level FlightAware
11:09PM 40.2680 -94.5760 94° East 492 566 37,000  Level FlightAware
11:10PM 40.2610 -94.4600 94° East 493 567 37,000  Level FlightAware
11:11PM 40.2520 -94.3160 95° East 493 567 37,000  Level FlightAware
11:12PM 40.2420 -94.1460 94° East 493 567 37,000  Level FlightAware
11:12PM 40.2340 -94.0160 95° East 493 567 37,000  Level FlightAware
11:13PM 40.2260 -93.8890 95° East 491 565 37,000  Level FlightAware
11:14PM 40.2170 -93.7570 95° East 490 564 37,000  Level FlightAware
11:15PM 40.2090 -93.6340 95° East 491 565 37,000  Level FlightAware
11:15PM 40.2000 -93.5030 95° East 490 564 37,000  Level FlightAware
11:16PM 40.1930 -93.3880 95° East 492 566 37,000  Level FlightAware
11:17PM 40.1840 -93.2610 95° East 492 566 37,000  Level FlightAware
11:17PM 40.1750 -93.1400 96° East 492 566 37,000  Level FlightAware
11:18PM 40.1660 -93.0130 95° East 492 566 37,000  Level FlightAware
11:19PM 40.1570 -92.8850 95° East 493 567 37,000  Level FlightAware
11:19PM 40.1480 -92.7670 96° East 492 566 37,000  Level FlightAware
11:20PM 40.1400 -92.6480 95° East 490 564 37,000  Level FlightAware
11:21PM 40.1590 -92.5250 79° East 492 566 37,000  Level FlightAware
11:22PM 40.2000 -92.4110 65° Northeast 493 567 37,000  Level FlightAware
11:22PM 40.2350 -92.3170 64° Northeast 492 566 37,000  Level FlightAware
11:23PM 40.2830 -92.1830 65° Northeast 492 566 37,000  Level FlightAware
11:24PM 40.3220 -92.0720 65° Northeast 492 566 37,000  Level FlightAware
11:24PM 40.3660 -91.9500 65° Northeast 490 564 37,000  Level FlightAware
11:25PM 40.4000 -91.8550 65° Northeast 490 564 37,000  Level FlightAware
11:26PM 40.4430 -91.7320 65° Northeast 489 563 37,000 -480 Level FlightAware
11:26PM 40.4810 -91.6170 66° East 491 565 36,300 -1,500 Descending FlightAware
11:27PM 40.5200 -91.5030 66° East 494 568 34,900 -2,280 Descending FlightAware
11:28PM 40.5610 -91.3810 66° East 500 575 33,100 -1,380 Descending FlightAware
11:29PM 40.5980 -91.2720 66° East 506 582 33,000 -120 Descending FlightAware
11:29PM 40.6400 -91.1520 65° Northeast 509 586 33,000  Level FlightAware
11:30PM 40.6810 -91.0310 66° East 510 587 33,000  Level FlightAware
11:31PM 40.7210 -90.9130 66° East 512 589 33,000  Level FlightAware
11:31PM 40.7510 -90.8250 66° East 513 590 33,000  Level FlightAware
11:32PM 40.8020 -90.6740 66° East 516 594 33,000  Level FlightAware
11:33PM 40.8400 -90.5620 66° East 516 594 33,000  Level FlightAware
11:34PM 40.8840 -90.4270 67° East 517 595 33,000  Level FlightAware
11:34PM 40.9220 -90.3150 66° East 520 598 33,000  Level FlightAware
11:35PM 40.9650 -90.1830 67° East 522 601 33,000  Level FlightAware
11:36PM 41.0040 -90.0670 66° East 524 603 33,000 -240 Level FlightAware
11:36PM 41.0400 -89.9570 67° East 520 598 32,700 -2,220 Descending FlightAware
11:37PM 41.0870 -89.8110 67° East 524 603 29,900 -3,480 Descending FlightAware
11:38PM 41.1260 -89.6920 66° East 527 606 27,500 -3,180 Descending FlightAware
11:38PM 41.1650 -89.5730 66° East 501 577 25,600 -2,820 Descending FlightAware
11:39PM 41.2110 -89.4600 62° Northeast 477 549 23,600 -2,700 Descending FlightAware
11:40PM 41.2540 -89.3560 61° Northeast 460 529 21,900 -2,460 Descending FlightAware
11:40PM 41.2940 -89.2560 62° Northeast 444 511 20,300 -2,280 Descending FlightAware
11:41PM 41.3360 -89.1520 62° Northeast 428 493 18,700 -2,220 Descending FlightAware
11:42PM 41.3730 -89.0570 63° Northeast 417 480 17,200 -2,340 Descending FlightAware
11:43PM 41.4100 -88.9650 62° Northeast 375 432 15,500 -2,280 Descending FlightAware
11:43PM 41.4430 -88.8840 61° Northeast 350 403 14,000 -2,100 Descending FlightAware
11:44PM 41.4740 -88.8050 62° Northeast 347 399 12,600 -1,920 Descending FlightAware
11:45PM 41.5070 -88.7220 62° Northeast 342 394 11,300 -1,140 Descending FlightAware
11:45PM 41.5370 -88.6460 62° Northeast 309 356 11,000 -240 Descending FlightAware
11:46PM 41.5600 -88.5870 62° Northeast 299 344 11,000  Level FlightAware
11:47PM 41.5930 -88.5160 58° Northeast 295 339 11,000 -900 Level FlightAware
11:48PM 41.6330 -88.4550 49° Northeast 301 346 9,700 -1,740 Descending FlightAware
11:48PM 41.6440 -88.4380 49° Northeast 296 341 9,400 -1,200 Descending FlightAware
11:48PM 41.6690 -88.3990 49° Northeast 288 331 8,900 -1,380 Descending FlightAware
11:49PM 41.6910 -88.3650 49° Northeast 286 329 8,200 -1,680 Descending FlightAware
11:49PM 41.7210 -88.3320 39° Northeast 286 329 7,400 -1,200 Descending FlightAware
11:50PM 41.7570 -88.3140 20° North 285 328 7,000 -540 Descending FlightAware
11:50PM 41.7930 -88.2970 19° North 283 326 6,900 -780 Descending FlightAware
11:51PM 41.8250 -88.2810 20° North 282 325 6,300 -1,380 Descending FlightAware
11:51PM 41.8570 -88.2660 19° North 276 318 5,700 -1,140 Descending FlightAware
11:51PM 41.8910 -88.2510 18° North 265 305 5,300 -660 Descending FlightAware
11:52PM 41.9240 -88.2370 18° North 245 282 5,100 -600 Descending FlightAware
11:52PM 41.9370 -88.2270 30° Northeast 238 274 4,900 -1,080 Descending FlightAware
11:52PM 41.9440 -88.2090 62° Northeast 234 269 4,600 -1,200 Descending FlightAware
11:53PM 41.9490 -88.1710 80° East 221 254 4,100 -1,200 Descending FlightAware
11:53PM 41.9540 -88.1310 80° East 212 244 3,500 -1,140 Descending FlightAware
11:54PM 41.9590 -88.1020 77° East 201 231 3,100 -1,080 Descending FlightAware
11:54PM 41.9660 -88.0640 76° East 190 219 2,500 -960 Descending FlightAware
11:55PM 41.9690 -88.0230 84° East 165 190 2,000 -840 Descending FlightAware
11:55PM 41.9690 -88.0110 90° East 152 175 1,800 -900 Descending FlightAware
11:56PM 41.9690 -87.9840 90° East 135 155 1,400 -780 Descending FlightAware
11:56PM 41.9690 -87.9600 90° East 143 165 1,100 -780 Descending FlightAware
11:57PM 41.9690 -87.9330 90° East 149 171 700 -420 Descending FlightAware
11:57PM 41.9690 -87.9090 90° East 150 173 700  Level FlightAware